Time;durP1;ratioP1;P1;durP2;ratioP2;P2;SDS_P1;SDS_P2;PMS_P1;PMS_P2;Temp;Humidity;BMP_temperature;BMP_pressure;BME280_temperature;BME280_humidity;BME280_pressure;Samples;Min_cycle;Max_cycle;Signal;HPM_P1;HPM_P2
2022/11/01 00:01:41;;;;;;;38.87;32.10;;;15.60;99.90;;;;;;5053576;28;20559;-79
2022/11/01 00:04:09;;;;;;;42.87;33.93;;;15.70;99.90;;;;;;5040478;28;20500;-78
2022/11/01 00:06:37;;;;;;;38.63;33.97;;;15.70;99.90;;;;;;5054104;28;20498;-78
2022/11/01 00:09:06;;;;;;;46.60;35.23;;;15.60;99.90;;;;;;5054112;28;20452;-78
2022/11/01 00:11:35;;;;;;;39.33;32.03;;;15.60;99.90;;;;;;5053705;28;20472;-81
2022/11/01 00:14:02;;;;;;;39.90;35.00;;;15.60;99.90;;;;;;5053206;28;20516;-81
2022/11/01 00:16:29;;;;;;;40.33;33.60;;;15.60;99.90;;;;;;5054569;28;20479;-81
2022/11/01 00:18:59;;;;;;;46.53;35.63;;;15.60;99.90;;;;;;5053711;28;20475;-81
2022/11/01 00:21:26;;;;;;;43.27;33.60;;;15.60;99.90;;;;;;5053355;28;20472;-77
2022/11/01 00:23:53;;;;;;;41.90;33.67;;;15.60;99.90;;;;;;5052059;28;20471;-77
2022/11/01 00:26:23;;;;;;;45.90;34.33;;;15.60;99.90;;;;;;5053638;28;20474;-77
2022/11/01 00:28:52;;;;;;;42.90;34.50;;;15.60;99.90;;;;;;5052696;28;20543;-77
2022/11/01 00:31:23;;;;;;;40.60;34.70;;;15.60;99.90;;;;;;5053410;28;20546;-77
2022/11/01 00:33:51;;;;;;;36.90;32.90;;;15.60;99.90;;;;;;5053229;28;20487;-77
2022/11/01 00:36:18;;;;;;;43.70;34.23;;;15.60;99.90;;;;;;5053608;28;20543;-81
2022/11/01 00:38:45;;;;;;;35.70;31.43;;;15.60;99.90;;;;;;5053246;28;21005;-78
2022/11/01 00:41:14;;;;;;;34.93;29.97;;;15.60;99.90;;;;;;5054138;28;20551;-81
2022/11/01 00:43:41;;;;;;;40.00;33.30;;;15.70;99.90;;;;;;5053509;28;21012;-81
2022/11/01 00:46:10;;;;;;;31.60;27.70;;;15.70;99.90;;;;;;5053607;28;20463;-77
2022/11/01 00:48:37;;;;;;;44.53;33.60;;;15.70;99.90;;;;;;5053564;28;20493;-76
2022/11/01 00:51:05;;;;;;;35.33;31.53;;;15.70;99.90;;;;;;5040690;28;20481;-76
2022/11/01 00:53:32;;;;;;;27.90;24.87;;;15.70;99.90;;;;;;5042563;28;20467;-77
2022/11/01 00:56:00;;;;;;;39.67;34.30;;;15.80;99.90;;;;;;5054073;28;20545;-78
2022/11/01 00:58:30;;;;;;;36.63;30.93;;;15.70;99.90;;;;;;5047626;28;20551;-80
2022/11/01 01:00:58;;;;;;;33.30;29.73;;;15.80;99.90;;;;;;5056515;28;20543;-77
2022/11/01 01:03:28;;;;;;;38.10;31.13;;;15.80;99.90;;;;;;5056275;28;20472;-80
2022/11/01 01:05:55;;;;;;;42.00;32.77;;;15.80;99.90;;;;;;5057095;28;20473;-81
2022/11/01 01:08:23;;;;;;;35.30;28.17;;;15.80;99.90;;;;;;5054317;28;20468;-78
2022/11/01 01:10:50;;;;;;;29.27;26.07;;;15.80;99.90;;;;;;5054076;28;20506;-81
2022/11/01 01:13:18;;;;;;;32.43;28.93;;;15.80;99.90;;;;;;5055912;28;20473;-81
2022/11/01 01:15:45;;;;;;;45.27;32.10;;;15.80;99.90;;;;;;5047223;28;20479;-76
2022/11/01 01:18:13;;;;;;;38.00;30.60;;;15.80;99.90;;;;;;5056173;28;20476;-81
2022/11/01 01:20:41;;;;;;;37.63;33.60;;;15.80;99.90;;;;;;5057404;28;20806;-80
2022/11/01 01:23:10;;;;;;;40.87;33.17;;;15.80;99.90;;;;;;5057509;28;20471;-77
2022/11/01 01:25:39;;;;;;;33.30;29.93;;;15.80;99.90;;;;;;5055775;28;20472;-81
2022/11/01 01:28:06;;;;;;;34.90;31.30;;;15.80;99.90;;;;;;5056359;28;20497;-80
2022/11/01 01:30:33;;;;;;;39.03;32.67;;;15.80;99.90;;;;;;5055200;28;20817;-82
2022/11/01 01:33:00;;;;;;;37.10;32.00;;;15.80;99.90;;;;;;5044515;28;20778;-80
2022/11/01 01:35:30;;;;;;;36.97;31.27;;;15.70;99.90;;;;;;5049716;28;20931;-78
2022/11/01 01:38:01;;;;;;;37.93;28.67;;;15.70;99.90;;;;;;5052239;28;20501;-82
2022/11/01 01:40:30;;;;;;;36.27;32.50;;;15.70;99.90;;;;;;5037553;28;20946;-80
2022/11/01 01:42:57;;;;;;;32.23;28.20;;;15.70;99.90;;;;;;5044395;28;20950;-80
2022/11/01 01:45:35;;;;;;;28.80;25.70;;;15.70;99.90;;;;;;5048964;28;20474;-77
2022/11/01 01:48:14;;;;;;;45.83;33.43;;;15.70;99.90;;;;;;5044991;28;20942;-79
2022/11/01 01:50:47;;;;;;;31.07;27.77;;;15.70;99.90;;;;;;5039606;28;20985;-80
2022/11/01 01:53:20;;;;;;;34.40;30.03;;;15.80;99.90;;;;;;5052471;28;20641;-81
2022/11/01 01:55:55;;;;;;;29.40;26.40;;;15.70;99.90;;;;;;5052170;28;20447;-78
2022/11/01 01:58:27;;;;;;;29.33;26.33;;;15.80;99.90;;;;;;5052954;28;20542;-80
2022/11/01 02:00:55;;;;;;;30.00;26.70;;;15.80;99.90;;;;;;5052085;28;20459;-80
2022/11/01 02:03:29;;;;;;;34.97;31.17;;;15.80;99.90;;;;;;5039272;28;20807;-80
2022/11/01 02:06:00;;;;;;;34.27;30.73;;;15.80;99.90;;;;;;5051486;28;20463;-78
2022/11/01 02:08:31;;;;;;;31.20;27.80;;;15.80;99.90;;;;;;5051442;28;20805;-78
2022/11/01 02:11:00;;;;;;;43.47;29.97;;;15.80;99.90;;;;;;5051130;28;20460;-78
2022/11/01 02:13:30;;;;;;;34.70;28.90;;;15.80;99.90;;;;;;5052355;28;20534;-81
2022/11/01 02:16:14;;;;;;;36.37;29.53;;;15.80;99.90;;;;;;5052387;28;20478;-78
2022/11/01 02:18:47;;;;;;;37.70;30.50;;;15.80;99.90;;;;;;5051833;28;21007;-81
2022/11/01 02:21:46;;;;;;;34.53;29.30;;;15.70;99.90;;;;;;5052437;28;20571;-80
2022/11/01 02:24:43;;;;;;;33.27;29.67;;;15.70;99.90;;;;;;5053222;28;20471;-77
2022/11/01 02:27:20;;;;;;;32.07;28.53;;;15.70;99.90;;;;;;5052051;28;20953;-76
2022/11/01 02:30:09;;;;;;;33.07;29.40;;;15.70;99.90;;;;;;5052245;28;20471;-78
2022/11/01 02:32:45;;;;;;;35.37;30.70;;;15.70;99.90;;;;;;5052260;28;20492;-78
2022/11/01 02:35:21;;;;;;;32.87;29.23;;;15.70;99.90;;;;;;5041521;28;20975;-81
2022/11/01 02:37:54;;;;;;;33.63;28.17;;;15.60;99.90;;;;;;5052201;28;20476;-79
2022/11/01 02:40:28;;;;;;;32.90;29.43;;;15.60;99.90;;;;;;5050204;28;20455;-78
2022/11/01 02:43:01;;;;;;;32.73;27.70;;;15.60;99.90;;;;;;5052597;28;20510;-81
2022/11/01 02:45:34;;;;;;;33.03;29.73;;;15.60;99.90;;;;;;5055290;28;20964;-78
2022/11/01 02:48:04;;;;;;;40.20;31.70;;;15.60;99.90;;;;;;5056358;28;20467;-81
2022/11/01 02:50:37;;;;;;;34.00;28.03;;;15.50;99.90;;;;;;5055962;28;20483;-82
2022/11/01 02:53:04;;;;;;;38.27;31.40;;;15.50;99.90;;;;;;5056184;28;20819;-82
2022/11/01 02:55:33;;;;;;;33.30;29.83;;;15.50;99.90;;;;;;5055206;28;20737;-78
2022/11/01 02:58:05;;;;;;;37.87;30.87;;;15.40;99.90;;;;;;5055603;28;20957;-78
2022/11/01 03:00:34;;;;;;;37.03;33.10;;;15.40;99.90;;;;;;5055164;28;20539;-78
2022/11/01 03:03:11;;;;;;;34.50;30.90;;;15.40;99.90;;;;;;5055678;28;20558;-79
2022/11/01 03:05:58;;;;;;;30.73;27.43;;;15.40;99.90;;;;;;5055991;28;20459;-81
2022/11/01 03:08:32;;;;;;;34.90;30.97;;;15.40;99.90;;;;;;5054720;28;20540;-81
2022/11/01 03:11:09;;;;;;;35.07;31.37;;;15.40;99.90;;;;;;5055205;28;20468;-81
2022/11/01 03:13:59;;;;;;;32.27;29.07;;;15.30;99.90;;;;;;5051830;28;20471;-78
2022/11/01 03:16:31;;;;;;;33.40;29.87;;;15.30;99.90;;;;;;5052379;28;20625;-81
2022/11/01 03:19:11;;;;;;;38.37;33.57;;;15.30;99.90;;;;;;5055712;28;20467;-81
2022/11/01 03:21:41;;;;;;;33.00;29.30;;;15.30;99.90;;;;;;5054899;28;20459;-81
2022/11/01 03:24:20;;;;;;;36.90;31.83;;;15.30;99.90;;;;;;5055741;28;20469;-78
2022/11/01 03:27:02;;;;;;;39.50;29.90;;;15.30;99.90;;;;;;5055005;28;20463;-82
2022/11/01 03:29:31;;;;;;;36.63;31.63;;;15.30;99.90;;;;;;5055048;28;20475;-81
2022/11/01 03:31:59;;;;;;;36.63;32.37;;;15.20;99.90;;;;;;5043379;28;20567;-81
2022/11/01 03:34:28;;;;;;;37.40;33.50;;;15.20;99.90;;;;;;5055351;28;20528;-79
2022/11/01 03:37:00;;;;;;;35.73;31.80;;;15.30;99.90;;;;;;5055323;28;20499;-78
2022/11/01 03:39:33;;;;;;;33.10;28.83;;;15.20;99.90;;;;;;5043620;28;20479;-81
2022/11/01 03:42:06;;;;;;;33.03;29.27;;;15.30;99.90;;;;;;5055734;28;20464;-81
2022/11/01 03:44:40;;;;;;;36.37;32.60;;;15.30;99.90;;;;;;5054872;28;20476;-82
2022/11/01 03:47:08;;;;;;;33.23;29.63;;;15.20;99.90;;;;;;5054999;28;20471;-81
2022/11/01 03:49:39;;;;;;;35.80;31.77;;;15.20;99.90;;;;;;5054844;28;20456;-81
2022/11/01 03:52:06;;;;;;;34.53;30.60;;;15.20;99.90;;;;;;5054345;28;20476;-81
2022/11/01 03:54:35;;;;;;;35.10;30.50;;;15.20;99.90;;;;;;5045159;28;20475;-79
2022/11/01 03:57:02;;;;;;;32.00;28.50;;;15.20;99.90;;;;;;5052932;28;20467;-76
2022/11/01 03:59:29;;;;;;;34.67;30.90;;;15.20;99.90;;;;;;5053863;28;20527;-77
2022/11/01 04:01:56;;;;;;;31.77;28.70;;;15.20;99.90;;;;;;5054264;28;20558;-80
2022/11/01 04:04:23;;;;;;;33.10;29.20;;;15.20;99.90;;;;;;5053788;28;20482;-78
2022/11/01 04:06:52;;;;;;;35.17;31.53;;;15.20;99.90;;;;;;5054604;28;20471;-78
2022/11/01 04:09:19;;;;;;;42.17;29.90;;;15.20;99.90;;;;;;5053634;28;20534;-81
2022/11/01 04:11:46;;;;;;;30.63;27.30;;;15.20;99.90;;;;;;5053238;28;20467;-78
2022/11/01 04:22:33;;;;;;;38.60;31.70;;;15.10;99.90;;;;;;5054931;28;20508;-81
2022/11/01 04:25:01;;;;;;;41.17;33.03;;;15.10;99.90;;;;;;5053186;28;21049;-82
2022/11/01 04:27:27;;;;;;;33.70;29.37;;;15.00;99.90;;;;;;5053456;28;20957;-77
2022/11/01 04:29:54;;;;;;;31.47;28.20;;;15.00;99.90;;;;;;5053400;28;21043;-77
2022/11/01 04:32:22;;;;;;;36.43;29.20;;;15.00;99.90;;;;;;5052634;28;20476;-81
2022/11/01 04:34:49;;;;;;;28.63;25.60;;;15.00;99.90;;;;;;5053735;28;20475;-77
2022/11/01 04:37:16;;;;;;;32.80;26.50;;;15.10;99.90;;;;;;5053617;28;20468;-77
2022/11/01 04:39:45;;;;;;;25.73;23.13;;;15.10;99.90;;;;;;5053631;28;20537;-80
2022/11/01 04:42:12;;;;;;;27.23;24.10;;;15.10;99.90;;;;;;5053815;28;20464;-77
2022/11/01 04:44:39;;;;;;;33.17;29.70;;;15.10;99.90;;;;;;5054421;28;20520;-77
2022/11/01 04:47:06;;;;;;;31.10;27.80;;;15.10;99.90;;;;;;5053440;28;20467;-78
2022/11/01 04:49:33;;;;;;;35.00;31.20;;;15.10;99.90;;;;;;5053398;28;20533;-78
2022/11/01 04:52:00;;;;;;;34.30;29.57;;;15.10;99.90;;;;;;5053520;28;20472;-81
2022/11/01 04:54:31;;;;;;;37.57;30.37;;;15.10;99.90;;;;;;5054070;28;20532;-81
2022/11/01 04:57:01;;;;;;;35.73;31.43;;;15.00;99.90;;;;;;5053362;28;20578;-78
2022/11/01 04:59:28;;;;;;;35.43;29.90;;;15.00;99.90;;;;;;5054052;28;20478;-77
2022/11/01 05:01:55;;;;;;;33.40;29.03;;;15.00;99.90;;;;;;5052943;28;20479;-78
2022/11/01 05:04:22;;;;;;;34.23;30.50;;;15.00;99.90;;;;;;5054018;28;21075;-78
2022/11/01 05:06:49;;;;;;;35.63;30.07;;;15.00;99.90;;;;;;5052556;28;20467;-78
2022/11/01 05:09:20;;;;;;;32.67;26.10;;;15.00;99.90;;;;;;5053985;28;20900;-80
2022/11/01 05:11:49;;;;;;;37.27;30.43;;;15.00;99.90;;;;;;5053003;28;20464;-80
2022/11/01 05:14:18;;;;;;;32.73;29.27;;;15.00;99.90;;;;;;5053369;28;20525;-81
2022/11/01 05:16:48;;;;;;;31.57;28.47;;;15.00;99.90;;;;;;5053175;28;20517;-80
2022/11/01 05:19:16;;;;;;;37.23;33.00;;;15.00;99.90;;;;;;5053611;28;20531;-78
2022/11/01 05:21:45;;;;;;;35.80;30.00;;;15.00;99.90;;;;;;5052410;28;20481;-78
2022/11/01 05:24:12;;;;;;;38.17;31.97;;;15.00;99.90;;;;;;5052000;28;20851;-81
2022/11/01 05:29:34;;;;;;;35.97;28.93;;;14.90;99.90;;;;;;5053079;28;20581;-81
2022/11/01 05:32:03;;;;;;;42.10;34.20;;;14.90;99.90;;;;;;5052943;28;20945;-80
2022/11/01 05:34:30;;;;;;;37.57;32.33;;;14.90;99.90;;;;;;5053071;28;20470;-78
2022/11/01 05:36:57;;;;;;;33.27;28.23;;;14.90;99.90;;;;;;5052685;28;20518;-78
2022/11/01 05:39:24;;;;;;;34.77;28.43;;;14.90;99.90;;;;;;5053316;28;20467;-77
2022/11/01 05:41:51;;;;;;;35.03;28.60;;;14.90;99.90;;;;;;5052430;28;20483;-80
2022/11/01 05:44:18;;;;;;;32.63;29.13;;;14.90;99.90;;;;;;5053278;28;20544;-81
2022/11/01 05:46:46;;;;;;;35.70;31.17;;;14.90;99.90;;;;;;5043672;28;20491;-80
2022/11/01 05:49:13;;;;;;;33.77;28.60;;;14.90;99.90;;;;;;5053254;28;20492;-77
2022/11/01 05:51:40;;;;;;;34.77;30.90;;;14.90;99.90;;;;;;5053085;28;20875;-79
2022/11/01 05:54:07;;;;;;;37.90;31.77;;;14.90;99.90;;;;;;5052042;28;20555;-79
2022/11/01 05:56:35;;;;;;;36.03;32.07;;;14.90;99.90;;;;;;5052693;28;20463;-78
2022/11/01 05:59:04;;;;;;;35.63;28.30;;;14.80;99.90;;;;;;5052551;28;20467;-78
2022/11/01 06:01:31;;;;;;;33.07;26.90;;;14.80;99.90;;;;;;5052501;28;20474;-78
2022/11/01 06:04:01;;;;;;;38.90;31.17;;;14.80;99.90;;;;;;5052062;28;20555;-78
2022/11/01 06:06:29;;;;;;;42.17;31.13;;;14.90;99.90;;;;;;5053133;28;20471;-79
2022/11/01 06:08:57;;;;;;;34.40;30.77;;;14.90;99.90;;;;;;5052539;28;20510;-81
2022/11/01 06:11:24;;;;;;;33.57;29.93;;;14.80;99.90;;;;;;5053067;28;20948;-81
2022/11/01 06:13:54;;;;;;;33.33;28.50;;;14.80;99.90;;;;;;5051959;28;20543;-81
2022/11/01 06:16:27;;;;;;;29.33;26.37;;;14.80;99.90;;;;;;5053185;28;20479;-78
2022/11/01 06:18:54;;;;;;;35.87;29.67;;;14.80;99.90;;;;;;5052863;28;20466;-81
2022/11/01 06:22:01;;;;;;;41.83;29.03;;;14.80;99.90;;;;;;5057365;28;20482;-81
2022/11/01 06:24:35;;;;;;;38.83;31.10;;;14.80;99.90;;;;;;5058168;28;20450;-81
2022/11/01 06:27:02;;;;;;;32.73;29.27;;;14.70;99.90;;;;;;5055809;28;20463;-80
2022/11/01 06:29:29;;;;;;;33.60;26.70;;;14.70;99.90;;;;;;5056327;28;20839;-78
2022/11/01 06:31:56;;;;;;;34.57;29.40;;;14.70;99.90;;;;;;5055795;28;20545;-78
2022/11/01 06:34:24;;;;;;;34.70;28.60;;;14.70;99.90;;;;;;5056564;28;20474;-78
2022/11/01 06:36:51;;;;;;;30.63;26.73;;;14.70;99.90;;;;;;5055233;28;20478;-78
2022/11/01 06:39:19;;;;;;;32.70;26.90;;;14.70;99.90;;;;;;5056540;28;20475;-77
2022/11/01 06:41:47;;;;;;;28.50;25.53;;;14.80;99.90;;;;;;5052014;28;20517;-81
2022/11/01 06:44:14;;;;;;;31.17;27.30;;;14.80;99.90;;;;;;5059480;28;20467;-81
2022/11/01 06:46:42;;;;;;;34.43;28.93;;;14.80;99.90;;;;;;5059117;28;20804;-77
2022/11/01 06:50:08;;;;;;;29.57;25.97;;;14.80;99.90;;;;;;5046591;28;20478;-77
2022/11/01 06:52:35;;;;;;;36.33;27.57;;;14.80;99.90;;;;;;5040712;28;20532;-78
2022/11/01 06:55:06;;;;;;;30.37;25.20;;;14.90;99.90;;;;;;5056017;28;20466;-78
2022/11/01 06:57:33;;;;;;;34.30;28.27;;;14.80;99.90;;;;;;5055916;28;20463;-79
2022/11/01 07:00:00;;;;;;;34.40;27.83;;;14.80;99.90;;;;;;5045393;28;20567;-78
2022/11/01 07:02:28;;;;;;;32.77;26.97;;;14.90;99.90;;;;;;5055090;28;20797;-78
2022/11/01 07:04:57;;;;;;;35.43;30.73;;;14.90;99.90;;;;;;5055251;28;20462;-81
2022/11/01 07:07:24;;;;;;;40.37;28.00;;;14.80;99.90;;;;;;5056236;28;20467;-79
2022/11/01 07:09:52;;;;;;;29.97;25.40;;;14.90;99.90;;;;;;5055223;28;20518;-78
2022/11/01 07:12:20;;;;;;;31.90;28.27;;;14.90;99.90;;;;;;5055485;28;20524;-81
2022/11/01 07:14:47;;;;;;;33.27;27.57;;;14.90;99.90;;;;;;5054924;28;20841;-77
2022/11/01 07:17:14;;;;;;;32.73;28.00;;;14.90;99.90;;;;;;5055619;28;21019;-77
2022/11/01 07:19:41;;;;;;;30.40;26.60;;;15.00;99.90;;;;;;5055181;28;20482;-77
2022/11/01 07:22:08;;;;;;;31.23;27.53;;;15.00;99.90;;;;;;5054992;28;20948;-77
2022/11/01 07:24:35;;;;;;;32.43;26.03;;;15.00;99.90;;;;;;5055564;28;20866;-81
2022/11/01 07:27:02;;;;;;;34.00;27.70;;;15.00;99.90;;;;;;5054857;28;20499;-78
2022/11/01 07:29:30;;;;;;;33.43;27.87;;;15.10;99.90;;;;;;5054924;28;20601;-78
2022/11/01 07:31:57;;;;;;;36.47;26.90;;;15.10;99.90;;;;;;5053530;28;20526;-78
2022/11/01 07:34:25;;;;;;;27.10;23.60;;;15.10;99.90;;;;;;5055379;28;20506;-79
2022/11/01 07:36:54;;;;;;;27.87;24.77;;;15.10;99.90;;;;;;5054465;28;20470;-78
2022/11/01 07:39:22;;;;;;;35.73;25.70;;;15.20;99.90;;;;;;5055133;28;20468;-79
2022/11/01 07:41:51;;;;;;;26.93;24.03;;;15.20;99.90;;;;;;5054743;28;20537;-78
2022/11/01 07:44:21;;;;;;;32.07;24.50;;;15.30;99.90;;;;;;5055452;28;20463;-78
2022/11/01 07:46:49;;;;;;;30.57;23.93;;;15.30;99.90;;;;;;5054470;28;20474;-78
2022/11/01 07:49:16;;;;;;;27.37;24.60;;;15.30;99.90;;;;;;5054930;28;20467;-78
2022/11/01 07:54:26;;;;;;;26.70;24.07;;;15.40;99.90;;;;;;5461857;22;20463;-77
2022/11/01 07:56:53;;;;;;;30.53;24.13;;;15.30;99.90;;;;;;5054669;28;20465;-78
2022/11/01 07:59:20;;;;;;;24.50;22.00;;;15.30;99.90;;;;;;5054608;28;20966;-78
2022/11/01 08:01:47;;;;;;;27.40;24.50;;;15.40;99.90;;;;;;5045027;28;20497;-79
2022/11/01 08:04:15;;;;;;;28.37;25.40;;;15.40;99.90;;;;;;5054954;28;20472;-78
2022/11/01 08:06:44;;;;;;;28.13;23.47;;;15.40;99.90;;;;;;5054158;28;20459;-78
2022/11/01 08:09:11;;;;;;;27.57;23.17;;;15.40;99.90;;;;;;5055092;28;20476;-81
2022/11/01 08:11:38;;;;;;;25.77;21.93;;;15.40;99.90;;;;;;5034214;28;20507;-79
2022/11/01 08:14:05;;;;;;;25.33;22.63;;;15.40;99.90;;;;;;5053819;28;20464;-78
2022/11/01 08:16:38;;;;;;;28.03;23.83;;;15.40;99.90;;;;;;5056676;28;20507;-78
2022/11/01 08:19:21;;;;;;;23.37;20.30;;;15.50;99.90;;;;;;5055350;28;20465;-82
2022/11/01 08:21:49;;;;;;;26.10;22.90;;;15.50;99.90;;;;;;5044153;28;20500;-81
2022/11/01 08:24:16;;;;;;;29.63;22.80;;;15.60;99.90;;;;;;5054253;28;20475;-81
2022/11/01 08:26:43;;;;;;;23.90;21.57;;;15.50;99.90;;;;;;5054612;28;20472;-80
2022/11/01 08:29:11;;;;;;;26.00;22.00;;;15.60;99.90;;;;;;5054859;28;20498;-81
2022/11/01 08:31:43;;;;;;;30.20;21.53;;;15.60;99.90;;;;;;5055407;28;20467;-81
2022/11/01 08:34:10;;;;;;;21.57;19.30;;;15.60;99.90;;;;;;5048418;28;20532;-81
2022/11/01 08:36:38;;;;;;;21.50;19.20;;;15.60;99.90;;;;;;5056286;28;20464;-81
2022/11/01 08:39:06;;;;;;;23.13;20.13;;;15.60;99.90;;;;;;5056468;28;20464;-81
2022/11/01 08:41:33;;;;;;;26.70;23.93;;;15.70;99.90;;;;;;5056002;28;20809;-82
2022/11/01 08:44:00;;;;;;;22.80;20.33;;;15.70;99.90;;;;;;5056548;28;20491;-77
2022/11/01 08:46:39;;;;;;;21.47;19.30;;;15.80;99.90;;;;;;5057315;28;20468;-77
2022/11/01 08:49:20;;;;;;;26.77;21.93;;;15.80;99.90;;;;;;5055098;28;20549;-79
2022/11/01 08:51:49;;;;;;;19.33;17.30;;;15.80;99.90;;;;;;5055877;28;20811;-80
2022/11/01 08:54:16;;;;;;;18.47;16.57;;;15.90;99.90;;;;;;5044466;28;20473;-78
2022/11/01 08:56:46;;;;;;;20.00;17.93;;;16.00;99.90;;;;;;5054865;28;20524;-77
2022/11/01 08:59:13;;;;;;;21.70;19.50;;;16.00;99.90;;;;;;5055142;28;20472;-77
2022/11/01 09:01:40;;;;;;;19.10;16.40;;;16.00;99.90;;;;;;5055908;28;20467;-78
2022/11/01 09:04:08;;;;;;;21.33;18.27;;;16.10;99.90;;;;;;5054518;28;20966;-78
2022/11/01 09:06:35;;;;;;;18.77;16.77;;;16.10;99.90;;;;;;5054210;28;20476;-77
2022/11/01 09:09:05;;;;;;;22.20;19.17;;;16.20;99.90;;;;;;5043728;28;20974;-78
2022/11/01 09:11:33;;;;;;;19.73;17.70;;;16.20;99.90;;;;;;5053641;28;20481;-77
2022/11/01 09:14:00;;;;;;;18.87;16.73;;;16.30;99.90;;;;;;5044171;28;20477;-79
2022/11/01 09:16:27;;;;;;;24.40;16.67;;;16.30;99.90;;;;;;5053314;28;20538;-78
2022/11/01 09:18:56;;;;;;;24.83;18.77;;;16.40;99.90;;;;;;5054335;28;20476;-77
2022/11/01 09:21:24;;;;;;;19.00;16.80;;;16.40;99.90;;;;;;5052854;28;20475;-77
2022/11/01 09:23:50;;;;;;;15.07;13.57;;;16.50;99.90;;;;;;5045966;28;20476;-78
2022/11/01 09:26:19;;;;;;;18.07;15.37;;;16.60;99.90;;;;;;5053872;28;20972;-78
2022/11/01 09:28:47;;;;;;;20.60;16.87;;;16.60;99.90;;;;;;5054235;28;20970;-79
2022/11/01 09:31:14;;;;;;;17.97;16.27;;;16.60;99.90;;;;;;5057139;28;20478;-81
2022/11/01 09:33:44;;;;;;;17.00;14.30;;;16.70;99.90;;;;;;5063474;28;20474;-80
2022/11/01 09:36:14;;;;;;;19.97;16.33;;;16.80;99.90;;;;;;5063631;28;20463;-81
2022/11/01 09:38:42;;;;;;;15.33;13.33;;;16.80;99.90;;;;;;5065583;28;20469;-80
2022/11/01 09:41:17;;;;;;;22.40;16.73;;;16.80;99.90;;;;;;5065202;28;20782;-80
2022/11/01 09:43:47;;;;;;;21.80;19.20;;;16.80;99.90;;;;;;5065105;28;20466;-80
2022/11/01 09:46:17;;;;;;;21.63;17.63;;;16.90;99.90;;;;;;5055264;28;20858;-81
2022/11/01 09:48:48;;;;;;;18.63;16.70;;;16.90;99.90;;;;;;5053253;28;20981;-81
2022/11/01 09:51:20;;;;;;;16.50;14.90;;;17.00;99.90;;;;;;5052812;28;20473;-80
2022/11/01 09:53:48;;;;;;;15.83;13.27;;;17.00;99.90;;;;;;5052773;28;20524;-81
2022/11/01 09:56:21;;;;;;;20.13;15.53;;;17.10;99.90;;;;;;5056048;28;20968;-80
2022/11/01 09:59:00;;;;;;;21.33;17.97;;;17.10;99.90;;;;;;5057348;28;20829;-81
2022/11/01 10:01:41;;;;;;;19.27;17.37;;;17.20;99.90;;;;;;5056718;28;20484;-77
2022/11/01 10:04:47;;;;;;;17.53;15.37;;;17.20;99.90;;;;;;5057507;28;20467;-78
2022/11/01 10:07:22;;;;;;;16.30;14.60;;;17.30;99.90;;;;;;5056799;28;20491;-81
2022/11/01 10:09:58;;;;;;;20.83;14.80;;;17.30;99.90;;;;;;5057057;28;20477;-81
2022/11/01 10:12:43;;;;;;;16.67;14.97;;;17.40;99.90;;;;;;5046948;28;20514;-81
2022/11/01 10:15:32;;;;;;;17.80;15.50;;;17.40;99.90;;;;;;5047009;28;20505;-81
2022/11/01 10:18:16;;;;;;;15.07;13.60;;;17.50;99.90;;;;;;5056579;28;20500;-81
2022/11/01 10:20:44;;;;;;;13.50;12.20;;;17.50;99.90;;;;;;5055968;28;20485;-81
2022/11/01 10:23:15;;;;;;;17.00;15.40;;;17.50;99.90;;;;;;5062178;28;20455;-81
2022/11/01 10:25:47;;;;;;;16.07;13.17;;;17.60;99.90;;;;;;5067132;28;20493;-81
2022/11/01 10:28:22;;;;;;;15.87;11.90;;;17.50;99.90;;;;;;5062865;28;20459;-81
2022/11/01 10:30:55;;;;;;;13.23;11.13;;;17.60;99.90;;;;;;5053850;28;20492;-81
2022/11/01 10:33:29;;;;;;;10.87;9.87;;;17.60;99.90;;;;;;5060062;28;20457;-81
2022/11/01 10:35:59;;;;;;;16.90;14.07;;;17.60;99.90;;;;;;5058027;28;20513;-81
2022/11/01 10:39:05;;;;;;;14.00;12.33;;;17.60;99.90;;;;;;5060091;28;20916;-81
2022/11/01 10:41:37;;;;;;;12.97;10.90;;;17.60;99.90;;;;;;5030634;28;20777;-81
2022/11/01 10:44:14;;;;;;;12.70;11.40;;;17.60;99.90;;;;;;5056401;28;20471;-81
2022/11/01 10:46:45;;;;;;;16.33;14.50;;;17.60;99.90;;;;;;5056072;28;20481;-80
2022/11/01 10:49:20;;;;;;;16.03;12.00;;;17.50;99.90;;;;;;5055807;28;20470;-79
2022/11/01 10:51:53;;;;;;;18.23;13.73;;;17.50;99.90;;;;;;5055489;28;20460;-79
2022/11/01 10:57:44;;;;;;;14.13;12.50;;;17.60;99.90;;;;;;5043532;28;20456;-79
2022/11/01 11:00:16;;;;;;;14.90;13.40;;;17.50;99.90;;;;;;5055426;28;20467;-78
2022/11/01 11:02:49;;;;;;;14.83;13.33;;;17.50;99.90;;;;;;5055383;28;20539;-77
2022/11/01 11:05:17;;;;;;;14.20;12.70;;;17.60;99.90;;;;;;5043139;28;20479;-79
2022/11/01 11:07:44;;;;;;;12.60;10.87;;;17.50;99.90;;;;;;5055503;28;20512;-77
2022/11/01 11:10:19;;;;;;;13.83;12.43;;;17.60;99.90;;;;;;5058350;28;20482;-80
2022/11/01 11:12:48;;;;;;;12.53;11.30;;;17.60;99.90;;;;;;5057483;28;20855;-81
2022/11/01 11:15:21;;;;;;;10.73;9.70;;;17.70;99.90;;;;;;5048367;28;20976;-79
2022/11/01 11:17:57;;;;;;;11.27;10.07;;;17.70;99.90;;;;;;5046796;28;20542;-82
2022/11/01 11:20:26;;;;;;;10.03;9.07;;;17.70;99.90;;;;;;5054671;28;20477;-80
2022/11/01 11:22:55;;;;;;;11.40;10.40;;;17.80;99.90;;;;;;5046683;28;20485;-81
2022/11/01 11:25:32;;;;;;;13.00;9.03;;;17.80;99.90;;;;;;5055077;28;21404;-81
2022/11/01 11:28:00;;;;;;;10.50;9.40;;;17.90;99.90;;;;;;5055022;28;20479;-81
2022/11/01 11:30:36;;;;;;;13.80;10.77;;;18.00;99.90;;;;;;5055273;28;20494;-82
2022/11/01 11:33:36;;;;;;;10.73;9.63;;;18.00;99.90;;;;;;5055326;28;20604;-82
2022/11/01 11:36:06;;;;;;;10.33;9.43;;;18.10;99.90;;;;;;5055107;28;21002;-80
2022/11/01 11:38:48;;;;;;;13.63;10.10;;;18.20;99.90;;;;;;5055300;28;20528;-78
2022/11/01 11:44:43;;;;;;;12.80;11.23;;;18.20;99.90;;;;;;5045203;28;20478;-80
2022/11/01 11:47:23;;;;;;;11.20;9.97;;;18.30;99.90;;;;;;5047245;28;20474;-78
2022/11/01 11:49:55;;;;;;;10.73;8.90;;;18.30;99.90;;;;;;5053864;28;20586;-78
2022/11/01 11:52:27;;;;;;;9.30;8.40;;;18.40;99.90;;;;;;5053716;28;20988;-78
2022/11/01 11:54:55;;;;;;;9.93;8.57;;;18.40;99.90;;;;;;5054092;28;21031;-77
2022/11/01 11:57:25;;;;;;;9.37;8.20;;;18.40;99.90;;;;;;5052837;28;21016;-77
2022/11/01 11:59:57;;;;;;;9.47;8.13;;;18.40;99.90;;;;;;5054626;28;21036;-79
2022/11/01 12:02:35;;;;;;;10.70;9.60;;;18.50;99.90;;;;;;5045247;28;20499;-79
2022/11/01 12:05:07;;;;;;;16.90;14.00;;;18.50;99.90;;;;;;5053760;28;20471;-78
2022/11/01 12:07:47;;;;;;;13.77;12.37;;;18.50;99.90;;;;;;5054219;28;20471;-79
2022/11/01 12:10:31;;;;;;;11.33;9.50;;;18.50;99.90;;;;;;5054076;28;20786;-79
2022/11/01 12:13:25;;;;;;;9.03;8.13;;;18.40;99.90;;;;;;5055119;28;20551;-77
2022/11/01 12:16:07;;;;;;;9.30;8.33;;;18.40;99.90;;;;;;5053509;28;20538;-81
2022/11/01 12:18:52;;;;;;;7.40;6.70;;;18.40;99.90;;;;;;5045403;28;20467;-82
2022/11/01 12:21:28;;;;;;;13.13;9.20;;;18.50;99.90;;;;;;5054645;28;20841;-81
2022/11/01 12:24:04;;;;;;;7.70;7.00;;;18.40;99.90;;;;;;5053589;28;20458;-81
2022/11/01 12:26:33;;;;;;;10.70;7.20;;;18.50;99.90;;;;;;5045537;28;20483;-79
2022/11/01 12:29:21;;;;;;;8.53;7.73;;;18.40;99.90;;;;;;5016734;28;20474;-78
2022/11/01 12:32:01;;;;;;;7.50;6.27;;;18.40;99.90;;;;;;5041588;28;20479;-78
2022/11/01 12:34:35;;;;;;;6.57;6.00;;;18.40;99.90;;;;;;5030501;28;20485;-78
2022/11/01 12:37:26;;;;;;;;;;;;;;;;;;;;;
2022/11/01 12:40:06;;;;;;;9.70;8.70;;;18.40;99.90;;;;;;5032204;28;20475;-80
2022/11/01 12:42:40;;;;;;;14.20;10.57;;;18.40;99.90;;;;;;5053292;28;20565;-78
2022/11/01 12:45:24;;;;;;;9.33;8.47;;;18.40;99.90;;;;;;5053509;28;20588;-78
2022/11/01 12:47:57;;;;;;;12.07;8.17;;;18.40;99.90;;;;;;5042911;28;20483;-79
2022/11/01 12:50:29;;;;;;;9.40;8.07;;;18.40;99.90;;;;;;5053149;28;20957;-79
2022/11/01 12:53:02;;;;;;;8.17;7.10;;;18.40;99.90;;;;;;5051849;28;20475;-79
2022/11/01 12:55:32;;;;;;;10.80;7.90;;;18.30;99.90;;;;;;5053093;28;21010;-79
2022/11/01 12:58:00;;;;;;;7.10;6.40;;;18.40;99.90;;;;;;5052944;28;20529;-79
2022/11/01 13:00:39;;;;;;;10.47;7.90;;;18.30;99.90;;;;;;5044425;28;20544;-79
2022/11/01 13:03:22;;;;;;;7.80;7.00;;;18.30;99.90;;;;;;5053142;28;20470;-78
2022/11/01 13:05:56;;;;;;;7.60;6.77;;;18.30;99.90;;;;;;5053192;28;20478;-79
2022/11/01 13:08:36;;;;;;;9.63;7.50;;;18.30;99.90;;;;;;5052442;28;20450;-81
2022/11/01 13:11:15;;;;;;;8.57;7.77;;;18.30;99.90;;;;;;5041785;28;20956;-78
2022/11/01 13:13:49;;;;;;;8.20;7.50;;;18.30;99.90;;;;;;5043314;28;20543;-80